Create Custom Reports and Graphics: Custom Report

Cow Mountain

Current Conditions

5/18/21 4:45 PM (-07:00)
Updated Every 15 Minutes
Temp 56.8 °F   4.5
Wind Dir W | 269 °
Wind Spd 21.8 mph   3.4
Wind Gust 32.9 mph   4.4
BatVolt 13.7 V   0.1
Monthly Rain 0.20 In
Seasonal Rainfall 15.50 In

Today & Yesterday

Midnight to Midnight

5/18/21 4:45 PM (-07:00)
Updated Every 15 Minutes
Daily Max Temp 60.8 °F   3.5
Time of Max Temp 1338
Daily Min Temp 48.1 °F   2.1
Time of Min Temp 0700
Daily Max Wind 33.8 mph   1.5
Time of Max Wind 1429
Max Wind Dir W | 275 °
Daily Rain 0.00 In
Yesterday's Max Temp 64.3 °F
Yesterday’s Min Temp 48.0 °F
Yesterday's Max Wind 35.5 mph
Yesterday's Rainfall 0.00 In

Last 7 Days

Cow Mountain

Hourly Data | America/Los_Angeles
as of 5/18/21 4:51 PM PDT
Date & Time Temp (°F) WindChill (°F) Wind Dir (°) Wind Spd (mph) Wind Gust (mph) BatVolt (V) Latest Rain (In) Max Rain Intensity (In/Hr) Rain 24Hr (In) Storm Total (In) Daily Rain (In) Daily Min Temp (°F) Daily Max Temp (°F)
5/18/21 - 1600 58.4 - W | 269 18.9 33.5 13.7 0.00 - - - 0.00 48.1 60.8
5/18/21 - 1500 59.2 - W | 267 17.9 33.8 13.7 0.00 - - - 0.00 48.1 60.8
5/18/21 - 1400 59.1 - W | 266 15.9 30.9 13.7 0.00 - - - 0.00 48.1 60.8
5/18/21 - 1300 57.3 - W | 265 14.7 27.2 13.7 0.00 - - - 0.00 48.1 59.0
5/18/21 - 1200 55.0 - W | 269 16.7 29.4 13.8 0.00 - - - 0.00 48.1 56.5
5/18/21 - 1100 52.8 - W | 273 14.0 25.9 13.8 0.00 - - - 0.00 48.1 54.3
5/18/21 - 1000 50.7 - W | 272 13.0 25.0 13.8 0.00 - - - 0.00 48.1 53.0
5/18/21 - 0900 49.6 44.2 WNW | 289 14.5 26.7 13.9 0.00 - - - 0.00 48.1 53.0
5/18/21 - 0800 49.7 45.0 WNW | 290 12.1 21.5 13.9 0.00 - - - 0.00 48.1 53.0
5/18/21 - 0700 49.2 44.0 WNW | 294 13.6 23.0 13.4 0.00 - - - 0.00 48.1 53.0
5/18/21 - 0600 51.1 - WNW | 292 8.2 23.7 12.8 0.00 - - - 0.00 48.7 53.0
5/18/21 - 0500 52.1 - NW | 318 9.1 24.3 12.8 0.00 - - - 0.00 48.7 53.0
5/18/21 - 0400 49.2 44.1 WNW | 290 13.2 25.0 12.9 0.00 - - - 0.00 48.7 53.0
5/18/21 - 0300 50.9 - WNW | 291 15.4 27.2 12.9 0.00 - - - 0.00 49.3 53.0
5/18/21 - 0200 52.5 - WNW | 292 14.5 27.2 12.9 0.00 - - - 0.00 51.8 53.0
5/18/21 - 0100 52.6 - NW | 306 7.8 22.1 13.0 0.00 - - - 0.00 48.0 64.3
5/18/21 - 0000 51.6 - WNW | 292 9.4 21.0 13.0 0.00 - - - 0.00 48.0 64.3
5/17/21 - 2300 50.4 - WNW | 284 11.8 23.2 13.0 0.00 - - - 0.00 48.0 64.3
5/17/21 - 2200 49.0 43.5 WNW | 287 14.3 24.3 13.0 0.00 - - - 0.00 48.0 64.3
5/17/21 - 2100 50.4 - W | 273 13.2 24.1 13.1 0.00 - - - 0.00 48.6 64.3
5/17/21 - 2000 53.9 - W | 268 16.4 31.1 13.2 0.00 - - - 0.00 50.2 64.3
5/17/21 - 1900 56.2 - W | 266 20.0 35.5 13.7 0.00 - - - 0.00 50.2 64.3
5/17/21 - 1800 59.9 - W | 267 16.3 33.8 13.7 0.00 - - - 0.00 50.2 64.3
5/17/21 - 1700 60.8 - W | 271 18.7 31.4 13.7 0.00 - - - 0.00 50.2 64.3
5/17/21 - 1600 60.4 - W | 271 19.8 32.2 13.7 0.00 - - - 0.00 50.2 64.3
5/17/21 - 1500 62.4 - W | 270 18.8 32.2 13.7 0.00 - - - 0.00 50.2 64.3
5/17/21 - 1400 61.7 - W | 260 16.9 28.5 13.7 0.00 - - - 0.00 50.2 63.2
5/17/21 - 1300 58.6 - W | 266 15.1 22.6 13.7 0.00 - - - 0.00 50.2 61.2
5/17/21 - 1200 57.0 - W | 273 13.4 21.0 13.7 0.00 - - - 0.00 50.2 60.6
5/17/21 - 1100 56.7 - W | 280 9.4 17.1 13.8 0.00 - - - 0.00 50.2 60.6
5/17/21 - 1000 58.1 - NW | 312 4.4 11.6 13.8 0.00 - - - 0.00 50.2 60.6
5/17/21 - 0900 58.9 - NNW | 331 5.5 14.0 13.8 0.00 - - - 0.00 50.2 60.6
5/17/21 - 0800 55.5 - NW | 310 7.6 18.6 13.8 0.00 - - - 0.00 50.2 58.8
5/17/21 - 0700 54.9 - WNW | 295 9.1 19.1 13.4 0.00 - - - 0.00 50.2 57.9
5/17/21 - 0600 56.8 - NNW | 331 8.2 16.4 12.8 0.00 - - - 0.00 50.2 57.9
5/17/21 - 0500 55.0 - NW | 304 12.4 22.1 12.8 0.00 - - - 0.00 50.2 57.7
5/17/21 - 0400 52.9 - WNW | 291 12.9 21.7 12.9 0.00 - - - 0.00 50.2 57.7
5/17/21 - 0300 51.7 - WNW | 293 17.4 25.4 12.9 0.00 - - - 0.00 50.2 57.7
5/17/21 - 0200 54.8 - WNW | 293 19.6 30.5 13.0 0.00 - - - 0.00 52.1 57.7
5/17/21 - 0100 58.6 - WNW | 291 19.6 31.4 13.0 0.00 - - - 0.00 54.6 70.5
5/17/21 - 0000 55.8 - WNW | 293 19.2 28.1 13.0 0.00 - - - 0.00 54.6 70.5
5/16/21 - 2300 55.6 - WNW | 286 17.5 28.9 13.0 0.00 - - - 0.00 54.6 70.5
5/16/21 - 2200 56.6 - W | 271 16.6 27.4 13.0 0.00 - - - 0.00 55.4 70.5
5/16/21 - 2100 57.6 - W | 281 14.2 21.0 13.1 0.00 - - - 0.00 55.4 70.5
5/16/21 - 2000 61.3 - W | 271 17.2 25.0 13.2 0.00 - - - 0.00 55.4 70.5
5/16/21 - 1900 64.4 - W | 263 19.7 30.5 13.6 0.00 - - - 0.00 55.4 70.5
5/16/21 - 1800 66.0 - W | 265 19.5 28.7 13.6 0.00 - - - 0.00 55.4 70.5
5/16/21 - 1700 66.3 - W | 265 18.6 27.4 13.6 0.00 - - - 0.00 55.4 70.5
5/16/21 - 1600 66.3 - W | 266 17.4 27.0 13.6 0.00 - 0.03 0.16 0.00 55.4 70.5
5/16/21 - 1500 66.1 - W | 266 15.3 22.4 13.6 0.00 - 0.16 0.16 0.00 55.4 70.5
5/16/21 - 1400 65.3 - W | 264 12.8 19.7 13.6 0.00 - 0.16 0.16 0.00 55.4 70.5
5/16/21 - 1300 65.7 - W | 263 9.4 16.0 13.6 0.00 - 0.16 0.16 0.00 55.4 70.5
5/16/21 - 1200 67.8 - WSW | 252 3.2 9.9 13.6 0.00 - 0.16 0.16 0.00 55.4 70.5
5/16/21 - 1100 68.6 - E | 100 3.1 9.0 13.6 0.00 - 0.16 0.16 0.00 55.4 70.5
5/16/21 - 1000 66.8 - NW | 309 2.3 6.4 13.6 0.00 - 0.16 0.16 0.00 55.4 69.3
5/16/21 - 0900 66.0 - N | 358 4.4 9.9 13.7 0.00 - 0.16 0.16 0.00 55.4 67.9
5/16/21 - 0800 63.9 - NNW | 345 6.9 12.3 13.7 0.00 - 0.16 0.16 0.00 55.4 66.2
5/16/21 - 0700 60.3 - WNW | 300 6.3 14.2 13.4 0.00 - 0.16 0.16 0.00 55.4 61.7
5/16/21 - 0600 59.6 - W | 276 6.8 20.2 12.8 0.00 - 0.16 0.16 0.00 55.4 61.5
5/16/21 - 0500 58.5 - WNW | 291 14.5 23.7 12.9 0.00 - 0.16 0.16 0.00 55.4 61.5
5/16/21 - 0400 57.1 - WNW | 292 15.2 22.1 12.9 0.00 - 0.16 0.16 0.00 55.4 61.5
5/16/21 - 0300 57.9 - WNW | 290 11.6 21.3 12.9 0.00 - 0.16 0.16 0.00 57.1 61.5
5/16/21 - 0200 59.7 - WNW | 289 9.5 19.1 13.0 0.00 - 0.16 0.16 0.00 58.3 61.5
5/16/21 - 0100 61.7 - NW | 318 7.2 18.6 13.0 0.00 - 0.16 0.16 0.16 50.6 68.7
5/16/21 - 0000 61.0 - NW | 314 8.8 17.8 13.0 0.00 - 0.16 0.16 0.16 50.6 68.7
5/15/21 - 2300 60.5 - NNE | 29 11.9 25.6 13.0 0.00 - 0.16 0.16 0.16 50.6 68.7
5/15/21 - 2200 60.9 - NE | 45 10.0 23.4 13.0 0.00 - 0.16 0.16 0.16 50.6 68.7
5/15/21 - 2100 60.8 - WNW | 296 8.6 12.9 13.0 0.00 - 0.16 0.16 0.16 50.6 68.7
5/15/21 - 2000 60.5 - WNW | 293 10.1 14.7 13.1 0.00 - 0.16 0.16 0.16 50.6 68.7
5/15/21 - 1900 60.9 - WNW | 284 9.5 16.4 13.7 0.00 - 0.16 0.16 0.16 50.6 68.7
5/15/21 - 1800 59.6 - W | 269 15.8 21.5 13.8 0.00 - 0.16 0.16 0.16 50.6 68.7
5/15/21 - 1700 57.0 - WSW | 255 13.0 27.4 13.8 0.03 0.86 0.16 0.16 0.16 50.6 68.7
5/15/21 - 1600 62.8 - SW | 222 15.3 34.8 13.2 0.13 3.27 0.13 0.13 0.13 50.6 68.7
5/15/21 - 1500 66.6 - W | 263 17.2 29.8 13.6 0.00 - - - 0.00 50.6 68.1
5/15/21 - 1400 65.2 - W | 264 14.7 24.6 13.6 0.00 - - - 0.00 50.6 67.4
5/15/21 - 1300 63.7 - W | 263 12.4 20.8 13.6 0.00 - - - 0.00 50.6 67.4
5/15/21 - 1200 63.5 - W | 262 8.5 19.7 13.6 0.00 - - - 0.00 50.6 67.4
5/15/21 - 1100 65.4 - ESE | 102 5.0 10.3 13.6 0.00 - - - 0.00 50.6 67.4
5/15/21 - 1000 63.9 - E | 83 6.0 13.6 13.7 0.00 - - - 0.00 50.6 65.4
5/15/21 - 0900 62.8 - NE | 49 11.0 20.0 13.7 0.00 - - - 0.00 50.6 64.3
5/15/21 - 0800 62.3 - NNE | 24 10.6 22.8 13.7 0.00 - - - 0.00 50.6 63.0
5/15/21 - 0700 61.2 - N | 7 11.3 23.0 13.3 0.00 - - - 0.00 50.6 62.2
5/15/21 - 0600 59.0 - NNW | 332 11.4 27.6 12.8 0.00 - - - 0.00 50.6 61.5
5/15/21 - 0500 55.4 - WNW | 290 9.0 23.9 12.9 0.00 - - - 0.00 50.6 61.5
5/15/21 - 0400 57.7 - NW | 311 7.8 24.1 12.9 0.00 - - - 0.00 50.6 61.5
5/15/21 - 0300 60.0 - NNW | 344 15.8 29.6 12.9 0.00 - - - 0.00 50.6 61.5
5/15/21 - 0200 58.4 - N | 349 18.2 31.8 12.9 0.00 - - - 0.00 50.6 60.3
5/15/21 - 0100 50.7 - NW | 314 12.6 31.6 12.9 0.00 - - - 0.00 42.0 69.6
5/15/21 - 0000 44.4 36.7 WNW | 288 18.1 28.9 13.0 0.00 - - - 0.00 42.0 69.6
5/14/21 - 2300 44.7 37.2 WNW | 282 17.2 26.7 13.0 0.00 - - - 0.00 42.7 69.6
5/14/21 - 2200 49.5 43.2 WNW | 289 18.6 32.0 13.0 0.00 - - - 0.00 47.7 69.6
5/14/21 - 2100 50.0 44.3 W | 279 16.2 26.5 13.0 0.00 - - - 0.00 48.0 69.6
5/14/21 - 2000 53.6 - W | 269 20.0 33.8 13.1 0.00 - - - 0.00 51.7 69.6
5/14/21 - 1900 56.5 - W | 269 20.4 32.9 13.7 0.00 - - - 0.00 54.9 69.6
5/14/21 - 1800 59.7 - W | 271 21.5 34.8 13.6 0.00 - - - 0.00 57.3 69.6
5/14/21 - 1700 62.7 - W | 264 19.8 32.9 13.6 0.00 - - - 0.00 60.2 69.6
5/14/21 - 1600 65.2 - W | 270 21.2 37.0 13.6 0.00 - - - 0.00 61.9 69.6
5/14/21 - 1500 66.9 - W | 271 21.7 34.8 13.6 0.00 - - - 0.00 61.9 69.6
5/14/21 - 1400 68.2 - W | 264 19.1 33.1 13.6 0.00 - - - 0.00 61.9 69.6
5/14/21 - 1300 67.9 - W | 270 15.2 25.4 13.6 0.00 - - - 0.00 61.9 69.6
5/14/21 - 1200 65.6 - W | 274 13.8 26.1 13.6 0.00 - - - 0.00 61.9 69.2
5/14/21 - 1100 64.2 - W | 275 10.2 16.4 13.7 0.00 - - - 0.00 61.9 69.2
5/14/21 - 1000 63.1 - WNW | 283 9.6 16.9 13.7 0.00 - - - 0.00 61.9 69.2
5/14/21 - 0900 66.9 - NNW | 336 5.0 11.0 13.7 0.00 - - - 0.00 62.6 69.2
5/14/21 - 0800 66.0 - NW | 324 6.8 15.1 13.7 0.00 - - - 0.00 63.8 67.3
5/14/21 - 0700 65.5 - WNW | 292 7.3 15.8 13.3 0.00 - - - 0.00 63.8 67.3
5/14/21 - 0600 65.9 - WNW | 297 8.4 16.4 12.9 0.00 - - - 0.00 64.2 67.3
5/14/21 - 0500 65.8 - WNW | 290 10.6 18.6 12.9 0.00 - - - 0.00 64.2 67.3
5/14/21 - 0400 66.6 - WNW | 292 8.9 17.3 12.9 0.00 - - - 0.00 64.2 67.3
5/14/21 - 0300 66.4 - WNW | 293 10.1 21.0 12.9 0.00 - - - 0.00 64.2 67.3
5/14/21 - 0200 65.2 - WNW | 289 9.9 20.2 13.0 0.00 - - - 0.00 64.2 66.0
5/14/21 - 0100 64.8 - WNW | 292 11.9 21.7 13.0 0.00 - - - 0.00 63.8 78.4
5/14/21 - 0000 65.2 - WNW | 289 14.0 21.7 13.0 0.00 - - - 0.00 64.1 78.4
5/13/21 - 2300 67.1 - WNW | 295 9.6 18.6 13.0 0.00 - - - 0.00 64.9 78.4
5/13/21 - 2200 66.4 - WNW | 292 14.1 20.6 13.0 0.00 - - - 0.00 64.9 78.4
5/13/21 - 2100 65.3 - WNW | 284 12.6 18.0 13.0 0.00 - - - 0.00 64.9 78.4
5/13/21 - 2000 66.9 - W | 270 16.0 23.9 13.1 0.00 - - - 0.00 65.4 78.4
5/13/21 - 1900 70.3 - W | 271 18.0 25.9 13.6 0.00 - - - 0.00 65.4 78.4
5/13/21 - 1800 72.6 - W | 272 18.7 27.2 13.5 0.00 - - - 0.00 65.4 78.4
5/13/21 - 1700 74.4 - W | 269 17.2 27.8 13.5 0.00 - - - 0.00 65.4 78.4
5/13/21 - 1600 74.8 - W | 264 16.5 29.2 13.5 0.00 - - - 0.00 65.4 78.4
5/13/21 - 1500 73.7 - W | 266 14.9 26.1 13.5 0.00 - - - 0.00 65.4 78.4
5/13/21 - 1400 73.0 - W | 262 13.3 21.7 13.5 0.00 - - - 0.00 65.4 78.4
5/13/21 - 1300 72.7 - W | 265 9.1 20.0 13.5 0.00 - - - 0.00 65.4 78.4
5/13/21 - 1200 76.1 - SSE | 149 2.4 9.0 13.5 0.00 - - - 0.00 65.4 78.4
5/13/21 - 1100 75.6 - E | 100 2.6 12.5 13.6 0.00 - - - 0.00 65.4 77.1
5/13/21 - 1000 73.2 - E | 87 3.7 7.7 13.6 0.00 - - - 0.00 65.4 74.2
5/13/21 - 0900 72.9 - E | 97 4.2 9.2 13.6 0.00 - - - 0.00 65.4 73.8
5/13/21 - 0800 71.8 - ENE | 61 4.0 6.8 13.6 0.00 - - - 0.00 65.4 72.7
5/13/21 - 0700 69.5 - NNW | 327 5.4 8.1 13.3 0.00 - - - 0.00 65.4 70.7
5/13/21 - 0600 67.0 - NW | 316 7.4 11.2 12.9 0.00 - - - 0.00 65.4 69.4
5/13/21 - 0500 66.4 - WNW | 295 8.4 12.9 12.9 0.00 - - - 0.00 65.6 69.4
5/13/21 - 0400 66.3 - WNW | 298 9.7 15.3 12.9 0.00 - - - 0.00 65.6 69.4
5/13/21 - 0300 66.7 - WNW | 298 7.3 11.0 12.9 0.00 - - - 0.00 65.8 69.4
5/13/21 - 0200 66.7 - NW | 311 6.8 10.3 13.0 0.00 - - - 0.00 65.9 69.4
5/13/21 - 0100 68.5 - NW | 315 6.4 11.2 13.0 0.00 - - - 0.00 65.0 77.9
5/13/21 - 0000 68.8 - NW | 313 7.5 12.3 13.0 0.00 - - - 0.00 65.0 77.9
5/12/21 - 2300 66.9 - WNW | 297 10.7 13.6 13.0 0.00 - - - 0.00 65.0 77.9
5/12/21 - 2200 66.2 - WNW | 289 12.1 17.1 13.0 0.00 - - - 0.00 65.0 77.9
5/12/21 - 2100 65.6 - W | 280 11.9 17.3 13.0 0.00 - - - 0.00 65.0 77.9
5/12/21 - 2000 67.9 - W | 273 12.8 17.5 13.1 0.00 - - - 0.00 66.3 77.9
5/12/21 - 1900 70.5 - W | 267 14.7 21.9 13.5 0.00 - - - 0.00 68.3 77.9
5/12/21 - 1800 72.1 - W | 261 14.5 25.9 13.5 0.00 - - - 0.00 68.3 77.9
5/12/21 - 1700 74.8 - WSW | 250 14.0 27.2 13.5 0.00 - - - 0.00 68.3 77.9
5/12/21 - 1600 75.3 - WSW | 246 12.4 20.6 13.5 0.00 - - - 0.00 68.3 76.8
5/12/21 - 1500 74.9 - WSW | 244 11.4 21.3 13.5 0.00 - - - 0.00 68.3 76.8
5/12/21 - 1400 74.2 - WSW | 243 9.5 19.3 13.5 0.00 - - - 0.00 68.3 75.9
5/12/21 - 1300 72.8 - WSW | 255 8.9 17.8 13.6 0.00 - - - 0.00 68.3 75.1
5/12/21 - 1200 71.0 - W | 268 9.4 16.2 13.6 0.00 - - - 0.00 68.3 74.5
5/12/21 - 1100 70.7 - WSW | 256 6.1 13.2 13.6 0.00 - - - 0.00 68.3 74.5
5/12/21 - 1000 72.3 - E | 90 3.1 8.8 13.6 0.00 - - - 0.00 68.3 74.5
5/12/21 - 0900 71.1 - E | 96 5.5 10.3 13.6 0.00 - - - 0.00 68.3 72.0
5/12/21 - 0800 71.0 - E | 89 4.7 8.1 13.7 0.00 - - - 0.00 68.3 71.6
5/12/21 - 0700 69.7 - E | 83 1.5 4.4 13.3 0.00 - - - 0.00 68.3 71.0
5/12/21 - 0600 69.5 - N | 349 4.9 8.1 12.9 0.00 - - - 0.00 68.3 70.0
5/12/21 - 0500 69.3 - N | 354 6.1 9.0 12.9 0.00 - - - 0.00 68.3 70.0
5/12/21 - 0400 68.9 - NW | 326 6.7 10.7 12.9 0.00 - - - 0.00 68.3 70.0
5/12/21 - 0300 69.1 - NW | 308 6.0 9.9 12.9 0.00 - - - 0.00 68.3 70.0
5/12/21 - 0200 69.7 - NNW | 334 5.0 6.8 13.0 0.00 - - - 0.00 69.4 70.0
5/12/21 - 0100 69.5 - NNW | 331 4.1 6.4 13.0 0.00 - - - 0.00 65.7 76.3
5/12/21 - 0000 69.0 - N | 1 3.1 4.8 13.0 0.00 - - - 0.00 65.7 76.3
5/11/21 - 2300 67.7 - NW | 308 6.3 9.4 13.0 0.00 - - - 0.00 65.7 76.3
5/11/21 - 2200 66.6 - WNW | 297 9.2 12.5 13.0 0.00 - - - 0.00 65.7 76.3
5/11/21 - 2100 66.2 - WNW | 296 10.5 14.0 13.1 0.00 - - - 0.00 65.7 76.3
5/11/21 - 2000 68.6 - W | 273 11.6 19.3 13.1 0.00 - - - 0.00 65.9 76.3
5/11/21 - 1900 71.0 - W | 264 15.7 25.0 13.5 0.00 - - - 0.00 65.9 76.3
5/11/21 - 1800 72.1 - W | 264 18.4 30.9 13.5 0.00 - - - 0.00 65.9 76.3
5/11/21 - 1700 73.4 - W | 262 17.8 29.6 13.5 0.00 - - - 0.00 65.9 76.3
Max 76.1 45.0 - 21.7 37.0 13.9 0.13 3.27 0.16 0.16 0.16 69.4 78.4
Avg 62.8 42.5 - 11.9 21.1 13.3 0.00 2.06 0.15 0.16 - - -
Min 44.4 36.7 - 1.5 4.4 12.8 0.00 0.86 0.03 0.13 0.00 42.0 53.0
Total - - - - - - 0.16 - - - - - -

Last 30 Days

Cow Mountain

Daily Data | America/Los_Angeles
as of 5/18/21 4:51 PM PDT
Date Daily Max Temp (°F) Time of Max Temp Daily Min Temp (°F) Time of Min Temp Daily Rain (In) Monthly Rain (In) Seasonal Rainfall (In) Daily Max Wind (mph) Time of Max Wind Max Wind Dir (°) Wind Spd (mph) Hrs <= 32F (hrs) Chilling <=45F (hrs) Storm Total (In) Daily Max Rain Intensity (In/Hr) Time of Max Rain Intensity Max 1 Min Rain (In) Max 1 Min Rain Time Max 15 Min Rain (In) Max 15 Min Precip Time Max 60 Min Rain (In) Max 60 Min Rain Time Bat Volt Min Day (V)
5/17/21 64.3 1416 48.0 2122 0.00 0.20 15.50 35.5 1810 W | 275 13.3 0.0 0.0 - - - - - - - - - 12.8
5/16/21 70.5 1059 54.6 2249 0.00 0.20 15.50 31.4 0044 WNW | 289 12.5 0.0 0.0 - - - - - - - - - 12.8
5/15/21 68.7 1510 50.6 0104 0.16 0.20 15.50 34.8 1545 ENE | 60 11.2 0.0 0.0 0.16 3.27 1551 0.02 1556 0.13 1600 0.16 1645 12.8
5/14/21 69.6 1250 42.0 2330 0.00 0.04 15.34 37.0 1553 W | 267 14.3 0.0 1.4 - - - - - - - - - 12.8
5/13/21 78.4 1139 63.8 0014 0.00 0.04 15.34 29.2 1523 WNW | 288 10.3 0.0 0.0 - - - - - - - - - 12.8
5/12/21 77.9 1604 65.0 2045 0.00 0.04 15.34 27.2 1625 W | 265 8.6 0.0 0.0 - - - - - - - - - 12.8
5/11/21 76.3 1400 65.7 2023 0.00 0.04 15.34 30.9 1706 WSW | 256 8.7 0.0 0.0 - - - - - - - - - 12.8
5/10/21 76.2 1636 57.9 0532 0.00 0.04 15.34 26.5 1747 W | 272 10.5 0.0 0.0 - - - - - - - - - 12.8
5/9/21 63.8 1339 48.7 0639 0.00 0.04 15.34 35.5 1512 W | 274 12.5 0.0 0.0 - - - - - - - - - 12.8
5/8/21 68.2 1457 49.9 0044 0.00 0.04 15.34 41.4 0750 NE | 47 14.2 0.0 0.0 - - - - - - - - - 12.8
5/7/21 60.3 2325 36.7 0503 0.02 0.04 15.34 38.4 0114 WNW | 295 14.8 0.0 8.8 - 0.01 0101 0.01 0213 0.01 0227 0.02 0213 12.7
5/6/21 58.2 1437 41.7 0058 0.02 0.02 15.32 45.6 1730 W | 273 17.7 0.0 5.1 - 0.01 0004 0.01 0005 0.01 0019 0.02 0006 12.8
5/5/21 78.0 1625 53.6 0057 0.00 0.00 15.30 29.4 0038 WNW | 286 10.2 0.0 0.0 - - - - - - - - - 12.8
5/4/21 68.2 1526 52.1 0621 0.00 0.00 15.30 34.8 0130 NNW | 344 10.0 0.0 0.0 - - - - - - - - - 12.8
5/3/21 67.8 1446 50.1 0504 0.00 0.00 15.30 31.1 0041 NNW | 335 11.0 0.0 0.0 - - - - - - - - - 12.8
5/2/21 59.6 2351 42.5 0534 0.00 0.00 15.30 36.6 1550 WNW | 282 14.2 0.0 1.4 - - - - - - - - - 12.8
5/1/21 57.5 1438 44.4 2145 0.00 0.00 15.30 47.8 1515 WNW | 285 18.0 0.0 1.0 - - - - - - - - - 12.8
4/30/21 72.8 1128 49.4 2057 0.00 0.41 15.30 32.9 0011 WNW | 293 9.7 0.0 0.0 - - - - - - - - - 12.8
4/29/21 73.8 1512 59.5 2012 0.00 0.41 15.30 23.0 1721 W | 276 8.1 0.0 0.0 - - - - - - - - - 12.8
4/28/21 71.1 1549 55.5 0552 0.00 0.41 15.30 30.7 1656 W | 277 10.4 0.0 0.0 - - - - - - - - - 12.8
4/27/21 60.5 1552 42.1 0348 0.00 0.41 15.30 32.2 1643 W | 279 10.2 0.0 5.4 - - - - - - - - - 12.7
4/26/21 47.6 1448 31.3 0625 0.03 0.41 15.30 33.3 1530 W | 278 12.1 2.0 23.0 0.36 0.01 0101 0.01 0442 0.01 0456 0.01 0541 12.7
4/25/21 42.2 1554 33.3 0150 0.33 0.38 15.27 32.9 1305 WNW | 287 14.0 0.0 24.0 0.33 0.41 1229 0.01 1452 0.06 1037 0.16 1059 12.7
4/24/21 46.7 1326 33.9 0059 0.00 0.05 14.94 29.8 0312 W | 270 13.1 0.0 23.1 - - - - - - - - - 12.7
4/23/21 63.0 1446 38.9 2328 0.00 0.05 14.94 38.4 2232 W | 278 12.8 0.0 3.8 - - - - - - - - - 12.8
4/22/21 63.4 1425 48.6 2310 0.00 0.05 14.94 32.2 1641 W | 261 11.2 0.0 0.0 - - - - - - - - - 12.8
4/21/21 64.8 1531 49.7 0113 0.00 0.05 14.94 27.0 1509 WSW | 247 10.4 0.0 0.0 - - - - - - - - - 12.8
4/20/21 57.4 1644 38.3 0813 0.00 0.05 14.94 36.0 0226 NW | 310 14.6 0.0 7.8 - - - - - - - - - 12.8
4/19/21 64.8 1313 47.4 0055 0.00 0.05 14.94 37.7 1619 WNW | 291 14.4 0.0 0.0 - - - - - - - - - 12.8
4/18/21 70.9 1344 58.3 2211 0.00 0.05 14.94 35.3 1631 W | 270 12.2 0.0 0.0 - - - - - - - - - 12.8
Max 78.4 - 65.7 - 0.33 0.41 - 47.8 - - 18.0 2.0 24.0 0.36 3.27 - 0.02 - 0.13 - 0.16 - 12.8
Avg - - - - - 0.12 - - - - 12.2 0.1 3.5 0.28 - - - - - - - - -
Min 42.2 - 31.3 - 0.00 0.00 - 23.0 - - 8.1 0.0 0.0 0.16 0.01 - 0.01 - 0.01 - 0.01 - 12.7
Total - - - - - - - - - - - 2.0 104.8 - - - - - - - - - -

Climate Summary

Cow Mountain

Current Year | Showing 1/1/21 - 5/17/21
as of 5/18/21 4:51 PM PDT
Temperature (°F) Precip (in) Days
Month Days Avg Max Avg Min Max Max Min Min Total Daily Min Temp < 32 Daily Max Temp > 90 Daily Rain > 0.01 Daily Rain > 0.1 Daily Max Wind > 30 Daily Max Wind > 40
Jan 2021 31 49.3 38.3 72.7 24.2 4.32 6 0 17 13 0 0
Feb 2021 28 51 37.9 67.6 27.5 2.85 7 0 12 10 0 0
Mar 2021 31 50.4 35.3 68.7 25.8 1.92 12 0 12 6 0 0
Apr 2021 30 61.9 45.1 73.8 31.3 0.41 1 0 3 1 0 0
May 2021 17 68.4 51 78.4 36.7 0.2 0 0 3 1 0 0
Total 137 - - - - 9.7 26 0 47 31 0 0
Average 27.4 56.2 41.5 - - 1.94 5.2 0 9.4 6.2 0 0
Maximum 31 68.4 51 78.4 - 4.32 12 0 17 13 0 0
Minimum 17 49.3 35.3 - 24.2 0.2 0 0 3 1 0 0

Climate Summary

Cow Mountain

Last Year | Showing 6/9/20 - 12/31/20
as of 5/18/21 4:51 PM PDT
Temperature (°F) Precip (in) Days
Month Days Avg Max Avg Min Max Max Min Min Total Daily Min Temp < 32 Daily Max Temp > 90 Daily Rain > 0.01 Daily Rain > 0.1 Daily Max Wind > 30 Daily Max Wind > 40
Jun 2020 22 74.2 58 91.4 40.1 0.09 0 1 3 0 0 0
Jul 2020 31 81.1 65.5 87.4 48.2 0 0 0 0 0 0 0
Aug 2020 31 82.9 67.2 93.6 56.4 0.18 0 3 1 1 0 0
Sep 2020 30 79.8 64.3 97.3 50.2 0.06 0 3 2 0 0 0
Oct 2020 31 75.4 61.8 89.2 45.6 0.1 0 0 1 0 0 0
Nov 2020 30 54.9 42.6 77.2 30 1.73 2 0 7 4 0 0
Dec 2020 31 52.4 40.1 65.5 31.6 3.73 1 0 12 8 0 0
Total 206 - - - - 5.89 3 7 26 13 0 0
Average 29.4 71.5 57.1 - - 0.84 0.4 1 3.7 1.9 0 0
Maximum 31 82.9 67.2 97.3 - 3.73 2 3 12 8 0 0
Minimum 22 52.4 40.1 - 30 0 0 0 0 0 0 0
Calm: 0.0%
Calm: 0.0%